createdAt,value
2022-08-05T00:01:36.195Z,25.61
2022-08-05T00:04:17.673Z,25.59
2022-08-05T00:06:47.010Z,25.58
2022-08-05T00:09:19.718Z,25.59
2022-08-05T00:11:55.733Z,25.57
2022-08-05T00:14:27.830Z,25.54
2022-08-05T00:16:58.558Z,25.53
2022-08-05T00:19:33.616Z,25.49
2022-08-05T00:22:12.725Z,25.33
2022-08-05T00:24:42.344Z,25.27
2022-08-05T00:27:16.570Z,25.25
2022-08-05T00:30:03.271Z,25.12
2022-08-05T00:32:32.194Z,25.05
2022-08-05T00:35:07.642Z,25.02
2022-08-05T00:37:53.587Z,25.05
2022-08-05T00:40:27.782Z,24.98
2022-08-05T00:42:58.749Z,24.91
2022-08-05T00:45:42.921Z,24.95
2022-08-05T00:48:13.603Z,25.03
2022-08-05T00:50:44.396Z,25.12
2022-08-05T00:54:00.440Z,25.07
2022-08-05T00:56:05.571Z,24.92
2022-08-05T00:58:36.865Z,24.78
2022-08-05T01:01:08.950Z,24.69
2022-08-05T01:03:38.178Z,24.67
2022-08-05T01:06:14.123Z,24.68
2022-08-05T01:08:47.468Z,24.69
2022-08-05T01:11:22.283Z,24.67
2022-08-05T01:14:08.627Z,24.67
2022-08-05T01:16:46.359Z,24.76
2022-08-05T01:19:46.390Z,24.86
2022-08-05T01:22:41.927Z,24.93
2022-08-05T01:25:40.387Z,24.96
2022-08-05T01:28:19.179Z,25.02
2022-08-05T01:30:53.768Z,25.06
2022-08-05T01:33:35.622Z,25.09
2022-08-05T01:36:13.191Z,25.12
2022-08-05T01:38:48.544Z,25.21
2022-08-05T01:41:22.673Z,25.28
2022-08-05T01:43:56.663Z,25.33
2022-08-05T01:46:42.963Z,25.42
2022-08-05T01:49:24.253Z,25.47
2022-08-05T01:52:12.416Z,25.46
2022-08-05T01:54:52.055Z,25.45
2022-08-05T01:58:09.771Z,25.45
2022-08-05T02:00:17.486Z,25.43
2022-08-05T02:02:54.757Z,25.46
2022-08-05T02:05:28.576Z,25.45
2022-08-05T02:08:01.077Z,25.43
2022-08-05T02:10:37.953Z,25.45
2022-08-05T02:13:16.011Z,25.47
2022-08-05T02:15:51.858Z,25.51
2022-08-05T02:18:31.992Z,25.54
2022-08-05T02:21:14.633Z,25.56
2022-08-05T02:23:46.100Z,25.57
2022-08-05T02:26:17.308Z,25.60
2022-08-05T02:28:48.939Z,25.61
2022-08-05T02:31:24.553Z,25.62
2022-08-05T02:33:58.227Z,25.61
2022-08-05T02:36:31.379Z,25.59
2022-08-05T02:39:02.985Z,25.58
2022-08-05T02:41:43.275Z,25.61
2022-08-05T02:44:23.047Z,25.66
2022-08-05T02:47:00.489Z,25.66
2022-08-05T02:49:36.784Z,25.64
2022-08-05T02:52:09.290Z,25.65
2022-08-05T02:54:41.142Z,25.66
2022-08-05T02:58:10.279Z,25.64
2022-08-05T03:00:03.687Z,25.66
2022-08-05T03:02:38.001Z,25.68
2022-08-05T03:05:09.755Z,25.67
2022-08-05T03:08:07.185Z,25.66
2022-08-05T03:10:29.253Z,25.65
2022-08-05T03:15:25.188Z,25.66
2022-08-05T03:17:57.872Z,25.67
2022-08-05T03:20:27.920Z,25.65
2022-08-05T03:22:58.070Z,25.68
2022-08-05T03:26:02.576Z,25.69
2022-08-05T03:28:18.723Z,25.67
2022-08-05T03:30:49.722Z,25.64
2022-08-05T03:33:21.798Z,25.62
2022-08-05T03:35:51.803Z,25.61
2022-08-05T03:38:32.935Z,25.62
2022-08-05T03:41:04.018Z,25.61
2022-08-05T03:44:08.533Z,25.60
2022-08-05T03:46:29.538Z,25.57
2022-08-05T03:49:01.852Z,25.58
2022-08-05T03:52:48.657Z,25.62
2022-08-05T03:55:51.094Z,25.62
2022-08-05T03:57:42.420Z,25.64
2022-08-05T04:00:15.648Z,25.63
2022-08-05T04:02:57.956Z,25.65
2022-08-05T04:05:34.707Z,25.67
2022-08-05T04:08:14.349Z,25.58
2022-08-05T04:10:54.574Z,25.43
2022-08-05T04:13:23.366Z,25.37
2022-08-05T04:16:03.233Z,25.31
2022-08-05T04:18:34.407Z,25.28
2022-08-05T04:21:07.160Z,25.31
2022-08-05T04:24:04.817Z,25.31
2022-08-05T04:26:32.611Z,25.37
2022-08-05T04:29:01.272Z,25.43
2022-08-05T04:31:38.436Z,25.44
2022-08-05T04:34:31.917Z,25.47
2022-08-05T04:36:57.817Z,25.49
2022-08-05T04:39:27.454Z,25.50
2022-08-05T04:41:56.525Z,25.49
2022-08-05T04:44:29.243Z,25.50
2022-08-05T04:46:59.372Z,25.50
2022-08-05T04:49:38.619Z,25.51
2022-08-05T04:52:18.629Z,25.50
2022-08-05T04:54:47.280Z,25.46
2022-08-05T04:57:17.934Z,25.42
2022-08-05T04:59:48.065Z,25.40
2022-08-05T05:02:36.463Z,25.37
2022-08-05T05:05:16.563Z,25.38
2022-08-05T05:08:01.840Z,25.40
2022-08-05T05:10:33.195Z,25.44
2022-08-05T05:13:03.934Z,25.43
2022-08-05T05:16:00.449Z,25.43
2022-08-05T05:18:31.031Z,25.44
2022-08-05T05:21:03.201Z,25.47
2022-08-05T05:23:39.416Z,25.47
2022-08-05T05:26:28.016Z,25.48
2022-08-05T05:28:57.406Z,25.51
2022-08-05T05:31:25.880Z,25.51
2022-08-05T05:34:02.581Z,25.45
2022-08-05T05:36:32.265Z,25.35
2022-08-05T05:39:05.444Z,25.21
2022-08-05T05:41:40.681Z,25.05
2022-08-05T05:44:35.761Z,24.97
2022-08-05T05:47:04.383Z,24.76
2022-08-05T05:49:33.569Z,24.81
2022-08-05T05:52:06.001Z,24.93
2022-08-05T05:54:50.473Z,25.09
2022-08-05T05:57:20.658Z,25.24
2022-08-05T05:59:49.303Z,25.35
2022-08-05T06:02:36.927Z,25.49
2022-08-05T06:05:15.719Z,25.57
2022-08-05T06:07:58.003Z,25.61
2022-08-05T06:10:36.488Z,25.67
2022-08-05T06:13:06.274Z,25.75
2022-08-05T06:16:28.885Z,25.85
2022-08-05T06:18:31.687Z,25.95
2022-08-05T06:21:01.173Z,26.04
2022-08-05T06:23:32.100Z,26.11
2022-08-05T06:26:21.470Z,26.20
2022-08-05T06:28:52.656Z,26.25
2022-08-05T06:31:22.351Z,26.30
2022-08-05T06:34:07.406Z,26.35
2022-08-05T06:36:57.318Z,26.41
2022-08-05T06:39:27.695Z,26.48
2022-08-05T06:42:01.736Z,26.55
2022-08-05T06:44:33.001Z,26.59
2022-08-05T06:47:02.393Z,26.65
2022-08-05T06:50:01.252Z,26.71
2022-08-05T06:52:36.368Z,26.78
2022-08-05T06:55:07.541Z,26.85
2022-08-05T06:57:57.521Z,26.92
2022-08-05T07:00:26.324Z,26.99
2022-08-05T07:02:58.443Z,27.09
2022-08-05T07:05:37.387Z,27.20
2022-08-05T07:08:10.915Z,27.32
2022-08-05T07:10:52.909Z,27.43
2022-08-05T07:13:59.454Z,27.57
2022-08-05T07:18:00.824Z,27.72
2022-08-05T07:22:28.481Z,27.95
2022-08-05T07:24:59.870Z,28.07
2022-08-05T07:27:57.275Z,28.16
2022-08-05T07:30:34.479Z,28.28
2022-08-05T07:33:09.066Z,28.38
2022-08-05T07:36:02.709Z,28.48
2022-08-05T07:38:33.910Z,28.56
2022-08-05T07:42:06.738Z,28.61
2022-08-05T07:43:56.559Z,28.70
2022-08-05T07:46:28.388Z,28.79
2022-08-05T07:49:01.835Z,28.84
2022-08-05T07:51:40.305Z,28.88
2022-08-05T07:54:11.400Z,28.89
2022-08-05T07:57:02.295Z,28.96
2022-08-05T07:59:39.076Z,29.08
2022-08-05T08:02:16.028Z,29.21
2022-08-05T08:04:49.973Z,29.28
2022-08-05T08:07:22.270Z,29.39
2022-08-05T08:09:55.170Z,29.49
2022-08-05T08:12:35.082Z,29.59
2022-08-05T08:15:15.424Z,29.69
2022-08-05T08:17:52.682Z,29.79
2022-08-05T08:20:45.111Z,29.78
2022-08-05T08:24:00.309Z,29.77
2022-08-05T08:26:04.515Z,29.74
2022-08-05T08:28:36.066Z,29.73
2022-08-05T08:31:07.035Z,29.75
2022-08-05T08:33:38.118Z,29.77
2022-08-05T08:36:38.176Z,29.87
2022-08-05T08:38:57.258Z,29.98
2022-08-05T08:41:52.639Z,30.10
2022-08-05T08:45:18.391Z,30.26
2022-08-05T08:47:46.970Z,30.35
2022-08-05T08:50:31.154Z,30.43
2022-08-05T08:52:55.854Z,30.49
2022-08-05T08:55:31.893Z,30.56
2022-08-05T08:58:16.139Z,30.55
2022-08-05T09:00:45.295Z,30.53
2022-08-05T09:03:16.116Z,30.57
2022-08-05T09:06:07.928Z,30.64
2022-08-05T09:08:40.444Z,30.74
2022-08-05T09:11:12.099Z,30.78
2022-08-05T09:14:00.623Z,30.82
2022-08-05T09:16:32.206Z,30.89
2022-08-05T09:19:00.855Z,30.94
2022-08-05T09:22:23.205Z,31.00
2022-08-05T09:24:25.443Z,31.09
2022-08-05T09:26:58.779Z,31.16
2022-08-05T09:29:47.768Z,31.23
2022-08-05T09:32:41.271Z,31.32
2022-08-05T09:35:26.482Z,31.39
2022-08-05T09:38:12.656Z,31.44
2022-08-05T09:40:53.886Z,31.44
2022-08-05T09:43:40.207Z,31.45
2022-08-05T09:46:28.401Z,31.44
2022-08-05T09:49:07.683Z,31.45
2022-08-05T09:51:50.060Z,31.50
2022-08-05T09:54:31.235Z,31.54
2022-08-05T09:57:01.174Z,31.56
2022-08-05T09:59:34.761Z,31.57
2022-08-05T10:02:06.511Z,31.60
2022-08-05T10:04:41.070Z,31.62
2022-08-05T10:07:19.609Z,31.69
2022-08-05T10:10:13.972Z,31.76
2022-08-05T10:12:49.333Z,31.77
2022-08-05T10:15:22.097Z,31.81
2022-08-05T10:18:08.704Z,31.85
2022-08-05T10:20:41.982Z,31.72
2022-08-05T10:23:22.183Z,31.54
2022-08-05T10:26:07.054Z,31.48
2022-08-05T10:28:36.487Z,31.51
2022-08-05T10:32:50.784Z,31.58
2022-08-05T10:33:54.688Z,31.72
2022-08-05T10:36:26.050Z,31.81
2022-08-05T10:39:10.025Z,31.90
2022-08-05T10:41:51.469Z,31.95
2022-08-05T10:44:21.890Z,31.96
2022-08-05T10:46:54.424Z,31.95
2022-08-05T10:49:26.915Z,31.96
2022-08-05T10:52:00.423Z,31.99
2022-08-05T10:54:56.363Z,32.13
2022-08-05T10:57:32.149Z,32.17
2022-08-05T11:00:18.223Z,32.19
2022-08-05T11:03:25.348Z,32.23
2022-08-05T11:06:17.799Z,32.35
2022-08-05T11:09:32.013Z,32.45
2022-08-05T11:12:50.391Z,32.58
2022-08-05T11:15:22.216Z,32.60
2022-08-05T11:18:00.322Z,32.64
2022-08-05T11:20:41.870Z,32.67
2022-08-05T11:24:05.161Z,32.71
2022-08-05T11:26:32.668Z,32.74
2022-08-05T11:29:13.811Z,32.81
2022-08-05T11:31:54.542Z,32.85
2022-08-05T11:34:39.392Z,32.81
2022-08-05T11:38:30.134Z,32.82
2022-08-05T11:40:02.846Z,32.91
2022-08-05T11:42:38.096Z,33.03
2022-08-05T11:45:23.238Z,32.91
2022-08-05T11:47:59.874Z,32.89
2022-08-05T11:50:29.621Z,32.92
2022-08-05T11:53:06.379Z,33.01
2022-08-05T11:55:38.431Z,32.99
2022-08-05T11:58:09.877Z,33.00
2022-08-05T12:00:44.125Z,32.97
2022-08-05T12:03:23.771Z,32.97
2022-08-05T12:06:02.882Z,33.02
2022-08-05T12:08:32.756Z,33.07
2022-08-05T12:11:05.809Z,33.11
2022-08-05T12:13:49.342Z,33.25
2022-08-05T12:16:25.673Z,33.44
2022-08-05T12:18:56.778Z,33.52
2022-08-05T12:21:29.899Z,33.61
2022-08-05T12:24:05.121Z,33.69
2022-08-05T12:26:36.572Z,33.76
2022-08-05T12:29:09.627Z,33.83
2022-08-05T12:31:48.300Z,33.87
2022-08-05T12:34:23.483Z,33.91
2022-08-05T12:36:54.265Z,33.84
2022-08-05T12:39:28.181Z,33.87
2022-08-05T12:42:14.729Z,33.89
2022-08-05T12:44:44.538Z,33.85
2022-08-05T12:47:17.155Z,33.81
2022-08-05T12:50:02.143Z,33.79
2022-08-05T12:52:39.107Z,33.74
2022-08-05T12:55:23.905Z,33.68
2022-08-05T12:58:48.554Z,33.74
2022-08-05T13:02:02.134Z,33.78
2022-08-05T13:03:41.432Z,33.83
2022-08-05T13:06:16.790Z,33.90
2022-08-05T13:08:51.416Z,33.92
2022-08-05T13:11:47.045Z,33.92
2022-08-05T13:14:19.345Z,33.97
2022-08-05T13:16:50.189Z,34.08
2022-08-05T13:19:22.578Z,34.05
2022-08-05T13:21:52.544Z,34.05
2022-08-05T13:24:27.742Z,34.12
2022-08-05T13:27:22.951Z,34.17
2022-08-05T13:30:33.955Z,34.15
2022-08-05T13:32:51.699Z,34.15
2022-08-05T13:35:43.297Z,33.99
2022-08-05T13:38:20.042Z,33.79
2022-08-05T13:40:58.765Z,33.59
2022-08-05T13:43:45.197Z,33.48
2022-08-05T13:46:30.637Z,33.49
2022-08-05T13:49:10.052Z,33.52
2022-08-05T13:51:46.642Z,33.51
2022-08-05T13:54:21.094Z,33.47
2022-08-05T13:56:54.016Z,33.32
2022-08-05T13:59:27.070Z,33.15
2022-08-05T14:01:59.469Z,33.04
2022-08-05T14:04:49.087Z,32.94
2022-08-05T14:07:56.414Z,32.89
2022-08-05T14:10:12.744Z,32.79
2022-08-05T14:12:42.647Z,32.64
2022-08-05T14:16:07.160Z,32.48
2022-08-05T14:18:01.926Z,32.32
2022-08-05T14:20:32.706Z,32.23
2022-08-05T14:23:02.955Z,32.15
2022-08-05T14:25:31.445Z,32.05
2022-08-05T14:28:00.189Z,32.07
2022-08-05T14:30:29.870Z,32.03
2022-08-05T14:32:58.880Z,31.95
2022-08-05T14:35:50.104Z,31.81
2022-08-05T14:38:31.662Z,31.72
2022-08-05T14:41:04.461Z,31.71
2022-08-05T14:43:57.798Z,31.65
2022-08-05T14:46:28.247Z,31.51
2022-08-05T14:49:06.963Z,31.33
2022-08-05T14:51:38.109Z,31.17
2022-08-05T14:54:27.724Z,31.04
2022-08-05T14:56:58.559Z,30.79
2022-08-05T14:59:29.161Z,30.54
2022-08-05T15:01:58.367Z,30.42
2022-08-05T15:04:29.469Z,30.34
2022-08-05T15:06:58.254Z,30.25
2022-08-05T15:09:52.561Z,30.30
2022-08-05T15:12:17.361Z,30.27
2022-08-05T15:14:50.039Z,30.17
2022-08-05T15:17:46.721Z,30.06
2022-08-05T15:20:18.436Z,29.96
2022-08-05T15:22:52.270Z,29.99
2022-08-05T15:25:41.353Z,29.95
2022-08-05T15:28:16.143Z,29.86
2022-08-05T15:30:46.488Z,29.71
2022-08-05T15:33:56.940Z,29.62
2022-08-05T15:36:16.752Z,29.65
2022-08-05T15:38:46.865Z,29.53
2022-08-05T15:41:23.160Z,29.45
2022-08-05T15:43:54.596Z,29.42
2022-08-05T15:46:24.870Z,29.47
2022-08-05T15:49:00.719Z,29.53
2022-08-05T15:52:03.983Z,29.52
2022-08-05T15:54:35.119Z,29.60
2022-08-05T15:57:08.025Z,29.72
2022-08-05T15:59:38.154Z,29.84
2022-08-05T16:02:07.177Z,29.89
2022-08-05T16:04:43.998Z,29.91
2022-08-05T16:07:13.347Z,29.91
2022-08-05T16:09:43.584Z,29.89
2022-08-05T16:12:13.698Z,29.86
2022-08-05T16:14:44.022Z,29.77
2022-08-05T16:17:14.095Z,29.67
2022-08-05T16:20:04.421Z,29.56
2022-08-05T16:22:34.126Z,29.52
2022-08-05T16:25:05.356Z,29.56
2022-08-05T16:27:59.704Z,29.64
2022-08-05T16:30:30.758Z,29.74
2022-08-05T16:33:01.933Z,29.82
2022-08-05T16:35:33.628Z,29.84
2022-08-05T16:38:24.556Z,29.81
2022-08-05T16:41:00.872Z,29.71
2022-08-05T16:43:32.665Z,29.58
2022-08-05T16:46:04.677Z,29.46
2022-08-05T16:48:37.833Z,29.38
2022-08-05T16:51:10.778Z,29.30
2022-08-05T16:54:04.898Z,29.27
2022-08-05T16:56:30.370Z,29.15
2022-08-05T16:59:07.699Z,29.08
2022-08-05T17:01:54.274Z,29.02
2022-08-05T17:04:27.481Z,28.92
2022-08-05T17:07:00.859Z,28.89
2022-08-05T17:09:38.986Z,28.85
2022-08-05T17:12:22.691Z,28.77
2022-08-05T17:15:10.491Z,28.69
2022-08-05T17:17:54.719Z,28.69
2022-08-05T17:20:25.118Z,28.68
2022-08-05T17:22:55.856Z,28.64
2022-08-05T17:25:39.722Z,28.55
2022-08-05T17:28:09.977Z,28.36
2022-08-05T17:30:42.758Z,28.25
2022-08-05T17:33:20.544Z,28.13
2022-08-05T17:36:08.454Z,28.08
2022-08-05T17:38:39.951Z,28.04
2022-08-05T17:41:11.616Z,27.96
2022-08-05T17:43:57.916Z,27.94
2022-08-05T17:46:27.839Z,27.92
2022-08-05T17:48:56.375Z,27.86
2022-08-05T17:51:26.514Z,27.76
2022-08-05T17:53:55.259Z,27.67
2022-08-05T17:56:23.743Z,27.63
2022-08-05T17:58:57.047Z,27.58
2022-08-05T18:01:27.238Z,27.56
2022-08-05T18:03:59.097Z,27.51
2022-08-05T18:06:32.794Z,27.47
2022-08-05T18:09:03.562Z,27.49
2022-08-05T18:11:33.871Z,27.48
2022-08-05T18:14:04.500Z,27.46
2022-08-05T18:16:51.116Z,27.43
2022-08-05T18:19:22.994Z,27.38
2022-08-05T18:22:09.645Z,27.35
2022-08-05T18:24:40.117Z,27.33
2022-08-05T18:27:12.958Z,27.30
2022-08-05T18:29:53.703Z,27.25
2022-08-05T18:32:27.854Z,27.18
2022-08-05T18:34:57.381Z,27.15
2022-08-05T18:37:34.853Z,27.10
2022-08-05T18:40:34.135Z,26.98
2022-08-05T18:42:59.519Z,26.89
2022-08-05T18:45:41.837Z,26.85
2022-08-05T18:48:30.628Z,26.80
2022-08-05T18:52:04.882Z,26.75
2022-08-05T18:54:08.822Z,26.71
2022-08-05T18:56:38.098Z,26.74
2022-08-05T18:59:42.029Z,26.70
2022-08-05T19:01:58.256Z,26.67
2022-08-05T19:04:30.171Z,26.64
2022-08-05T19:06:58.687Z,26.64
2022-08-05T19:09:27.189Z,26.61
2022-08-05T19:11:59.941Z,26.57
2022-08-05T19:14:53.418Z,26.54
2022-08-05T19:17:19.365Z,26.52
2022-08-05T19:19:49.269Z,26.51
2022-08-05T19:22:18.461Z,26.51
2022-08-05T19:24:54.400Z,26.53
2022-08-05T19:27:30.201Z,26.48
2022-08-05T19:29:59.174Z,26.50
2022-08-05T19:32:28.275Z,26.46
2022-08-05T19:34:58.418Z,26.43
2022-08-05T19:37:30.008Z,26.43
2022-08-05T19:40:15.901Z,26.40
2022-08-05T19:43:04.566Z,26.38
2022-08-05T19:45:36.808Z,26.33
2022-08-05T19:48:07.131Z,26.33
2022-08-05T19:50:44.739Z,26.31
2022-08-05T19:53:13.264Z,26.30
2022-08-05T19:56:14.066Z,26.28
2022-08-05T19:58:31.945Z,26.29
2022-08-05T20:01:28.071Z,26.26
2022-08-05T20:03:57.532Z,26.26
2022-08-05T20:06:28.649Z,26.23
2022-08-05T20:09:00.882Z,26.21
2022-08-05T20:11:42.294Z,26.18
2022-08-05T20:14:26.814Z,26.18
2022-08-05T20:16:55.878Z,26.13
2022-08-05T20:19:25.097Z,26.08
2022-08-05T20:22:05.961Z,25.97
2022-08-05T20:24:38.152Z,25.93
2022-08-05T20:27:11.094Z,25.86
2022-08-05T20:29:40.230Z,25.84
2022-08-05T20:32:08.910Z,25.86
2022-08-05T20:34:38.858Z,25.88
2022-08-05T20:37:18.091Z,25.88
2022-08-05T20:39:59.982Z,25.90
2022-08-05T20:42:28.503Z,25.93
2022-08-05T20:44:57.079Z,25.92
2022-08-05T20:47:31.103Z,25.93
2022-08-05T20:50:02.126Z,25.94
2022-08-05T20:52:32.708Z,25.96
2022-08-05T20:55:54.771Z,25.97
2022-08-05T20:57:50.719Z,25.95
2022-08-05T21:00:44.163Z,25.89
2022-08-05T21:03:08.404Z,25.90
2022-08-05T21:05:54.109Z,25.88
2022-08-05T21:08:26.568Z,25.88
2022-08-05T21:11:09.071Z,25.98
2022-08-05T21:13:48.008Z,26.04
2022-08-05T21:16:29.749Z,26.12
2022-08-05T21:19:00.700Z,26.19
2022-08-05T21:21:43.768Z,26.26
2022-08-05T21:24:15.715Z,26.32
2022-08-05T21:26:53.163Z,26.37
2022-08-05T21:29:26.216Z,26.39
2022-08-05T21:31:55.407Z,26.44
2022-08-05T21:34:24.212Z,26.46
2022-08-05T21:36:53.106Z,26.47
2022-08-05T21:39:26.541Z,26.45
2022-08-05T21:42:01.412Z,26.46
2022-08-05T21:44:30.996Z,26.40
2022-08-05T21:47:00.272Z,26.16
2022-08-05T21:49:56.861Z,25.86
2022-08-05T21:52:27.695Z,25.58
2022-08-05T21:55:06.947Z,25.38
2022-08-05T21:57:36.365Z,25.34
2022-08-05T22:00:13.608Z,25.28
2022-08-05T22:02:43.512Z,25.12
2022-08-05T22:05:13.055Z,24.85
2022-08-05T22:07:59.104Z,24.63
2022-08-05T22:10:32.003Z,24.45
2022-08-05T22:13:58.822Z,24.41
2022-08-05T22:16:01.946Z,24.21
2022-08-05T22:18:36.505Z,24.15
2022-08-05T22:21:18.983Z,23.99
2022-08-05T22:24:09.023Z,24.02
2022-08-05T22:27:00.895Z,23.93
2022-08-05T22:29:35.586Z,23.73
2022-08-05T22:32:04.472Z,23.43
2022-08-05T22:34:38.674Z,23.20
2022-08-05T22:37:09.012Z,23.02
2022-08-05T22:39:39.262Z,22.97
2022-08-05T22:42:15.443Z,22.97
2022-08-05T22:44:56.666Z,23.02
2022-08-05T22:47:29.796Z,23.00
2022-08-05T22:50:22.845Z,22.95
2022-08-05T22:52:49.661Z,22.98
2022-08-05T22:55:21.440Z,23.03
2022-08-05T22:57:52.290Z,23.03
2022-08-05T23:00:22.269Z,23.03
2022-08-05T23:02:52.093Z,22.98
2022-08-05T23:05:22.539Z,22.94
2022-08-05T23:07:51.638Z,22.92
2022-08-05T23:10:23.673Z,22.90
2022-08-05T23:12:55.904Z,22.79
2022-08-05T23:15:27.086Z,22.75
2022-08-05T23:18:02.073Z,22.73
2022-08-05T23:20:33.223Z,22.76
2022-08-05T23:23:08.499Z,22.78
2022-08-05T23:25:51.551Z,22.79
2022-08-05T23:28:26.883Z,22.85
2022-08-05T23:31:02.305Z,22.88
2022-08-05T23:34:03.908Z,22.93
2022-08-05T23:36:38.491Z,23.04
2022-08-05T23:39:09.243Z,23.09
2022-08-05T23:41:40.919Z,23.20
2022-08-05T23:44:11.198Z,23.44
2022-08-05T23:46:39.610Z,23.63
2022-08-05T23:49:16.894Z,23.75
2022-08-05T23:52:03.355Z,23.84
2022-08-05T23:54:38.478Z,23.92
2022-08-05T23:57:08.209Z,24.00
